Time;durP1;ratioP1;P1;durP2;ratioP2;P2;SDS_P1;SDS_P2;PMS_P1;PMS_P2;Temp;Humidity;BMP_temperature;BMP_pressure;BME280_temperature;BME280_humidity;BME280_pressure;Samples;Min_cycle;Max_cycle;Signal;HPM_P1;HPM_P2
2023/07/01 00:00:35;;;;;;;3.40;3.10;;;19.10;99.90;;;;;;5054803;28;20194;-80
2023/07/01 00:03:03;;;;;;;4.17;3.23;;;19.10;99.90;;;;;;5054069;28;20235;-80
2023/07/01 00:05:28;;;;;;;6.33;2.60;;;19.10;99.90;;;;;;5048915;28;20222;-80
2023/07/01 00:07:54;;;;;;;5.50;4.10;;;19.10;99.90;;;;;;5053781;28;20966;-80
2023/07/01 00:10:19;;;;;;;4.73;3.30;;;19.10;99.90;;;;;;5050917;28;20195;-80
2023/07/01 00:12:45;;;;;;;3.50;3.13;;;19.10;99.90;;;;;;5036660;28;20186;-79
2023/07/01 00:15:11;;;;;;;3.57;3.07;;;19.00;99.90;;;;;;5053608;28;20253;-80
2023/07/01 00:17:36;;;;;;;5.13;2.80;;;19.00;99.90;;;;;;5054427;28;20199;-79
2023/07/01 00:20:02;;;;;;;3.63;3.10;;;19.00;99.90;;;;;;5054080;28;20231;-80
2023/07/01 00:22:28;;;;;;;3.50;3.20;;;19.00;99.90;;;;;;5054306;28;20220;-80
2023/07/01 00:24:53;;;;;;;4.83;2.67;;;19.00;99.90;;;;;;5054527;28;20538;-80
2023/07/01 00:27:19;;;;;;;4.10;3.20;;;19.00;99.90;;;;;;5050299;28;20196;-80
2023/07/01 00:29:44;;;;;;;5.77;2.97;;;19.00;99.90;;;;;;5051364;28;20203;-80
2023/07/01 00:32:10;;;;;;;4.33;2.83;;;19.00;99.90;;;;;;5054174;28;20189;-80
2023/07/01 00:34:35;;;;;;;5.70;2.83;;;19.00;99.90;;;;;;5054366;28;20251;-80
2023/07/01 00:37:03;;;;;;;4.87;3.17;;;19.00;99.90;;;;;;5054524;28;20193;-80
2023/07/01 00:39:28;;;;;;;3.17;2.60;;;19.00;99.90;;;;;;5053770;28;20904;-80
2023/07/01 00:41:54;;;;;;;4.70;3.20;;;19.00;99.90;;;;;;5054516;28;20500;-80
2023/07/01 00:44:21;;;;;;;5.57;3.17;;;19.00;99.90;;;;;;5051903;28;20178;-80
2023/07/01 00:46:47;;;;;;;7.17;2.93;;;18.90;99.90;;;;;;5053864;28;20243;-80
2023/07/01 00:49:12;;;;;;;4.83;2.80;;;18.90;99.90;;;;;;5053332;28;20450;-80
2023/07/01 00:51:38;;;;;;;4.23;2.80;;;18.90;99.90;;;;;;5056438;28;20200;-80
2023/07/01 00:54:04;;;;;;;3.23;2.73;;;18.90;99.90;;;;;;5059283;28;20993;-80
2023/07/01 00:56:30;;;;;;;5.07;3.07;;;18.90;99.90;;;;;;5058206;28;20188;-80
2023/07/01 00:58:56;;;;;;;4.13;2.93;;;18.90;99.90;;;;;;5054280;28;20701;-80
2023/07/01 01:01:27;;;;;;;4.50;3.53;;;18.90;99.90;;;;;;5058352;28;20458;-79
2023/07/01 01:04:03;;;;;;;3.90;3.33;;;18.90;99.90;;;;;;5060933;28;20188;-80
2023/07/01 01:06:36;;;;;;;4.80;3.27;;;18.80;99.90;;;;;;5058358;28;20521;-78
2023/07/01 01:09:03;;;;;;;5.87;3.30;;;18.80;99.90;;;;;;5053561;28;20467;-79
2023/07/01 01:11:32;;;;;;;3.90;2.93;;;18.80;99.90;;;;;;5053540;28;20432;-79
2023/07/01 01:14:02;;;;;;;6.60;3.07;;;18.80;99.90;;;;;;5053159;28;20974;-79
2023/07/01 01:16:28;;;;;;;4.43;3.00;;;18.80;99.90;;;;;;5052932;28;20877;-79
2023/07/01 01:18:57;;;;;;;4.23;2.80;;;18.80;99.90;;;;;;5050373;28;20472;-79
2023/07/01 01:21:24;;;;;;;3.83;2.80;;;18.80;99.90;;;;;;5053335;28;20534;-80
2023/07/01 01:23:55;;;;;;;4.13;2.50;;;18.80;99.90;;;;;;5052380;28;20849;-80
2023/07/01 01:26:23;;;;;;;4.50;3.00;;;18.80;99.90;;;;;;5053579;28;21133;-80
2023/07/01 01:28:50;;;;;;;10.03;3.03;;;18.70;99.90;;;;;;5052118;28;20840;-79
2023/07/01 01:31:17;;;;;;;4.83;2.73;;;18.70;99.90;;;;;;5053334;28;20495;-80
2023/07/01 01:33:43;;;;;;;3.33;2.43;;;18.70;99.90;;;;;;5051608;28;20455;-80
2023/07/01 01:36:18;;;;;;;4.70;2.80;;;18.70;99.90;;;;;;5054041;28;20431;-79
2023/07/01 01:38:43;;;;;;;5.43;2.90;;;18.70;99.90;;;;;;5053280;28;20196;-80
2023/07/01 01:41:33;;;;;;;5.63;3.00;;;18.70;99.90;;;;;;5046175;28;20486;-79
2023/07/01 01:44:07;;;;;;;3.57;2.73;;;18.70;99.90;;;;;;5054241;28;20191;-79
2023/07/01 01:46:34;;;;;;;4.27;3.30;;;18.70;99.90;;;;;;5049518;28;20443;-80
2023/07/01 01:49:03;;;;;;;3.37;2.70;;;18.70;99.90;;;;;;5052622;28;20467;-79
2023/07/01 01:51:31;;;;;;;4.47;3.43;;;18.70;99.90;;;;;;5049993;28;20511;-79
2023/07/01 01:53:58;;;;;;;2.90;2.60;;;18.70;99.90;;;;;;5055750;28;20499;-80
2023/07/01 01:56:25;;;;;;;5.67;2.73;;;18.70;99.90;;;;;;5054755;28;20439;-80
2023/07/01 01:58:51;;;;;;;2.80;2.40;;;18.70;99.90;;;;;;5057107;28;20530;-80
2023/07/01 02:01:17;;;;;;;11.33;3.60;;;18.80;99.90;;;;;;5056539;28;20465;-80
2023/07/01 02:03:44;;;;;;;4.20;2.70;;;18.80;99.90;;;;;;5057585;28;20217;-80
2023/07/01 02:06:10;;;;;;;3.80;2.47;;;18.80;99.90;;;;;;5050647;28;20532;-79
2023/07/01 02:08:36;;;;;;;3.40;2.40;;;18.80;99.90;;;;;;5056439;28;20519;-80
2023/07/01 02:11:01;;;;;;;3.50;2.90;;;18.80;99.90;;;;;;5056743;28;20506;-79
2023/07/01 02:13:27;;;;;;;4.10;2.17;;;18.80;99.90;;;;;;5056249;28;20288;-80
2023/07/01 02:15:52;;;;;;;3.50;2.57;;;18.80;99.90;;;;;;5056905;28;20189;-80
2023/07/01 02:18:18;;;;;;;3.10;2.20;;;18.80;99.90;;;;;;5055510;28;20199;-80
2023/07/01 02:20:43;;;;;;;4.03;2.47;;;18.80;99.90;;;;;;5056914;28;20197;-80
2023/07/01 02:23:09;;;;;;;4.60;2.60;;;18.80;99.90;;;;;;5052095;28;20584;-80
2023/07/01 02:25:34;;;;;;;3.87;2.63;;;18.80;99.90;;;;;;5056513;28;20192;-80
2023/07/01 02:28:00;;;;;;;4.40;2.30;;;18.80;99.90;;;;;;5056227;28;20226;-80
2023/07/01 02:30:26;;;;;;;2.87;2.57;;;18.70;99.90;;;;;;5055283;28;20631;-80
2023/07/01 02:32:51;;;;;;;3.50;2.93;;;18.70;99.90;;;;;;5055440;28;20271;-79
2023/07/01 02:35:17;;;;;;;3.30;2.90;;;18.70;99.90;;;;;;5056246;28;20662;-80
2023/07/01 02:37:42;;;;;;;4.27;2.63;;;18.70;99.90;;;;;;5056412;28;20205;-80
2023/07/01 02:40:08;;;;;;;4.30;2.33;;;18.70;99.90;;;;;;5051729;28;20180;-79
2023/07/01 02:42:34;;;;;;;3.07;2.30;;;18.80;99.90;;;;;;5053935;28;20188;-79
2023/07/01 02:45:00;;;;;;;4.73;2.53;;;18.80;99.90;;;;;;5054825;28;20497;-80
2023/07/01 02:47:25;;;;;;;5.60;2.77;;;18.80;99.90;;;;;;5054136;28;20459;-80
2023/07/01 02:49:51;;;;;;;3.90;2.33;;;18.80;99.90;;;;;;5053996;28;20707;-80
2023/07/01 02:52:17;;;;;;;8.23;2.30;;;18.80;99.90;;;;;;5055741;28;20632;-80
2023/07/01 02:54:43;;;;;;;6.10;2.50;;;18.80;99.90;;;;;;5055755;28;20568;-80
2023/07/01 02:57:10;;;;;;;4.40;2.57;;;18.90;99.90;;;;;;5056693;28;20440;-79
2023/07/01 02:59:36;;;;;;;6.20;2.53;;;18.90;99.90;;;;;;5051286;28;20467;-80
2023/07/01 03:02:04;;;;;;;4.33;2.70;;;18.90;99.90;;;;;;5055058;28;20509;-80
2023/07/01 03:04:29;;;;;;;4.37;2.50;;;18.90;99.90;;;;;;5053937;28;20439;-80
2023/07/01 03:06:56;;;;;;;4.20;2.90;;;18.90;99.90;;;;;;5054961;28;20450;-79
2023/07/01 03:09:22;;;;;;;5.13;2.77;;;18.90;99.90;;;;;;5054784;28;20519;-80
2023/07/01 03:11:48;;;;;;;4.07;2.30;;;18.90;99.90;;;;;;5056141;28;20466;-80
2023/07/01 03:14:13;;;;;;;5.47;2.70;;;18.90;99.90;;;;;;5035116;28;20212;-79
2023/07/01 03:16:41;;;;;;;3.13;1.97;;;18.90;99.90;;;;;;5054170;28;20182;-80
2023/07/01 03:19:07;;;;;;;3.43;2.60;;;18.90;99.90;;;;;;5054797;28;20853;-80
2023/07/01 03:21:33;;;;;;;3.40;2.83;;;18.90;99.90;;;;;;5055768;28;20530;-79
2023/07/01 03:23:59;;;;;;;5.30;2.50;;;18.90;99.90;;;;;;5055344;28;20438;-80
2023/07/01 03:26:25;;;;;;;4.07;2.47;;;18.90;99.90;;;;;;5055109;28;20432;-80
2023/07/01 03:28:52;;;;;;;4.23;2.70;;;18.90;99.90;;;;;;5054926;28;20209;-80
2023/07/01 03:31:17;;;;;;;5.03;3.00;;;18.90;99.90;;;;;;5053075;28;20185;-80
2023/07/01 03:33:43;;;;;;;9.60;2.80;;;18.90;99.90;;;;;;5056615;28;20450;-80
2023/07/01 03:36:09;;;;;;;3.43;2.50;;;19.00;99.90;;;;;;5054496;28;20562;-80
2023/07/01 03:38:35;;;;;;;4.03;2.47;;;19.00;99.90;;;;;;5051157;28;20199;-80
2023/07/01 03:41:00;;;;;;;3.43;2.47;;;19.00;99.90;;;;;;5055229;28;20448;-80
2023/07/01 03:43:27;;;;;;;10.97;2.80;;;19.00;99.90;;;;;;5054692;28;20733;-80
2023/07/01 03:45:56;;;;;;;6.40;2.87;;;19.00;99.90;;;;;;5054237;28;20178;-80
2023/07/01 03:48:22;;;;;;;3.03;2.57;;;19.00;99.90;;;;;;5055665;28;20519;-80
2023/07/01 03:50:48;;;;;;;4.90;2.70;;;19.00;99.90;;;;;;5054737;28;20436;-80
2023/07/01 03:53:13;;;;;;;3.50;2.60;;;19.00;99.90;;;;;;5056225;28;20205;-80
2023/07/01 03:55:39;;;;;;;4.83;3.30;;;19.00;99.90;;;;;;5052430;28;20189;-80
2023/07/01 03:58:04;;;;;;;5.40;3.20;;;19.00;99.90;;;;;;5055112;28;20242;-79
2023/07/01 04:00:30;;;;;;;6.07;2.53;;;19.00;99.90;;;;;;5053951;28;20195;-80
2023/07/01 04:03:02;;;;;;;4.87;2.90;;;19.00;99.90;;;;;;5055543;28;20192;-80
2023/07/01 04:05:27;;;;;;;6.50;3.00;;;19.00;99.90;;;;;;5054294;28;20192;-80
2023/07/01 04:07:53;;;;;;;6.00;2.53;;;19.10;99.90;;;;;;5053284;28;20968;-80
2023/07/01 04:10:19;;;;;;;8.10;2.87;;;19.10;99.90;;;;;;5052660;28;20208;-80
2023/07/01 04:12:45;;;;;;;5.00;2.40;;;19.10;99.90;;;;;;5050131;28;20921;-79
2023/07/01 04:15:10;;;;;;;3.80;2.30;;;19.20;99.90;;;;;;5054435;28;20265;-79
2023/07/01 04:17:42;;;;;;;4.87;2.57;;;19.20;99.90;;;;;;5054890;28;20183;-80
2023/07/01 04:20:09;;;;;;;3.63;2.83;;;19.30;99.90;;;;;;5053337;28;20430;-80
2023/07/01 04:22:35;;;;;;;4.30;2.93;;;19.30;99.90;;;;;;5053781;28;20527;-79
2023/07/01 04:25:00;;;;;;;6.10;2.60;;;19.30;99.90;;;;;;5054010;28;20469;-80
2023/07/01 04:27:26;;;;;;;4.20;2.60;;;19.40;99.90;;;;;;5056682;28;20469;-80
2023/07/01 04:29:52;;;;;;;4.30;3.00;;;19.40;99.90;;;;;;5054684;28;20206;-80
2023/07/01 04:32:17;;;;;;;5.23;2.63;;;19.50;99.90;;;;;;5057634;28;20202;-80
2023/07/01 04:34:44;;;;;;;6.17;2.60;;;19.60;99.90;;;;;;5056447;28;20185;-80
2023/07/01 04:37:09;;;;;;;4.70;2.50;;;19.60;99.90;;;;;;5060810;28;20201;-80
2023/07/01 04:39:35;;;;;;;9.07;2.87;;;19.60;99.90;;;;;;5059000;28;20801;-80
2023/07/01 04:42:01;;;;;;;5.23;2.47;;;19.60;99.90;;;;;;5055916;28;20218;-79
2023/07/01 04:44:26;;;;;;;8.07;2.63;;;19.70;99.90;;;;;;5051935;28;20181;-79
2023/07/01 04:46:52;;;;;;;8.07;2.90;;;19.70;99.90;;;;;;5050038;28;20236;-79
2023/07/01 04:49:18;;;;;;;4.13;2.60;;;19.70;99.90;;;;;;5055503;28;20689;-80
2023/07/01 04:51:43;;;;;;;4.80;2.57;;;19.70;99.90;;;;;;5055334;28;20204;-80
2023/07/01 04:54:09;;;;;;;6.43;2.63;;;19.70;99.90;;;;;;5056505;28;20180;-80
2023/07/01 04:56:36;;;;;;;3.23;2.53;;;19.70;99.90;;;;;;5057295;28;20252;-80
2023/07/01 04:59:01;;;;;;;4.97;2.30;;;19.70;99.90;;;;;;5057439;28;20209;-80
2023/07/01 05:01:27;;;;;;;7.53;2.43;;;19.70;99.90;;;;;;5053230;28;20445;-79
2023/07/01 05:03:53;;;;;;;4.57;2.70;;;19.70;99.90;;;;;;5063659;28;20183;-79
2023/07/01 05:06:18;;;;;;;5.00;2.40;;;19.70;99.90;;;;;;5060522;28;20689;-80
2023/07/01 05:08:45;;;;;;;3.33;2.63;;;19.70;99.90;;;;;;5058675;28;20225;-80
2023/07/01 05:11:10;;;;;;;3.60;2.20;;;19.80;99.90;;;;;;5051436;28;20178;-79
2023/07/01 05:13:36;;;;;;;6.30;3.20;;;19.80;99.90;;;;;;5059214;28;20475;-80
2023/07/01 05:16:01;;;;;;;5.17;2.17;;;19.80;99.90;;;;;;5059371;28;20216;-80
2023/07/01 05:18:27;;;;;;;5.73;3.00;;;19.90;99.90;;;;;;5055255;28;20857;-80
2023/07/01 05:20:52;;;;;;;5.23;2.50;;;19.90;99.90;;;;;;5058096;28;20728;-80
2023/07/01 05:23:18;;;;;;;3.80;2.30;;;19.90;99.90;;;;;;5057420;28;20187;-80
2023/07/01 05:25:43;;;;;;;3.87;2.00;;;19.80;99.90;;;;;;5058815;28;20181;-80
2023/07/01 05:28:09;;;;;;;4.20;2.70;;;19.80;99.90;;;;;;5058635;28;20262;-80
2023/07/01 05:30:35;;;;;;;3.37;2.80;;;19.70;99.90;;;;;;5059207;28;20662;-80
2023/07/01 05:33:00;;;;;;;3.90;2.80;;;19.70;99.90;;;;;;5035233;28;20216;-80
2023/07/01 05:35:26;;;;;;;4.63;2.40;;;19.60;99.90;;;;;;5054457;28;20203;-80
2023/07/01 05:37:54;;;;;;;3.40;2.40;;;19.50;99.90;;;;;;5058610;28;20172;-80
2023/07/01 05:40:20;;;;;;;5.87;2.70;;;19.30;99.90;;;;;;5056673;28;20180;-80
2023/07/01 05:42:45;;;;;;;3.50;2.30;;;19.20;99.90;;;;;;5057207;28;20428;-80
2023/07/01 05:45:11;;;;;;;5.73;2.53;;;19.10;99.90;;;;;;5057749;28;20186;-79
2023/07/01 05:47:37;;;;;;;4.97;2.80;;;19.00;1.00;;;;;;5057284;28;20205;-80
2023/07/01 05:50:03;;;;;;;4.00;2.70;;;19.00;1.00;;;;;;5034778;28;20573;-80
2023/07/01 05:52:29;;;;;;;4.80;3.33;;;19.00;1.00;;;;;;5054732;28;20469;-80
2023/07/01 05:54:55;;;;;;;4.40;2.70;;;19.00;1.00;;;;;;5035509;28;20495;-80
2023/07/01 05:57:20;;;;;;;7.37;2.53;;;19.00;1.00;;;;;;5053130;28;20189;-80
2023/07/01 05:59:46;;;;;;;4.60;3.10;;;18.90;1.00;;;;;;5053510;28;20216;-80
2023/07/01 06:02:11;;;;;;;4.07;3.13;;;18.90;1.00;;;;;;5053727;28;20190;-78
2023/07/01 06:04:37;;;;;;;8.77;3.17;;;18.80;1.00;;;;;;5052774;28;20182;-78
2023/07/01 06:07:03;;;;;;;4.37;2.93;;;18.80;40.30;;;;;;5048655;28;20196;-78
2023/07/01 06:09:28;;;;;;;7.27;2.93;;;18.90;97.10;;;;;;5055356;28;20199;-78
2023/07/01 06:11:54;;;;;;;3.93;2.20;;;18.90;99.90;;;;;;5054423;28;20243;-78
2023/07/01 06:14:19;;;;;;;4.33;2.53;;;18.90;99.90;;;;;;5059492;28;20609;-78
2023/07/01 06:16:45;;;;;;;6.80;3.27;;;19.00;99.90;;;;;;5057028;28;20216;-78
2023/07/01 06:19:10;;;;;;;7.77;2.63;;;19.00;99.90;;;;;;5052349;28;20736;-79
2023/07/01 06:21:36;;;;;;;4.30;2.70;;;19.10;99.90;;;;;;5054006;28;20196;-78
2023/07/01 06:24:02;;;;;;;6.70;2.57;;;19.10;99.90;;;;;;5049982;28;21191;-78
2023/07/01 06:26:28;;;;;;;3.13;2.73;;;19.10;99.90;;;;;;5054506;28;20233;-78
2023/07/01 06:28:53;;;;;;;4.53;2.50;;;19.20;99.90;;;;;;5055341;28;20467;-78
2023/07/01 06:31:19;;;;;;;9.67;3.30;;;19.20;99.90;;;;;;5052697;28;20180;-78
2023/07/01 06:33:45;;;;;;;4.87;2.67;;;19.20;1.00;;;;;;5054706;28;20278;-79
2023/07/01 06:36:12;;;;;;;3.00;2.60;;;19.30;1.00;;;;;;5055722;28;20185;-78
2023/07/01 06:38:38;;;;;;;3.70;2.60;;;19.30;1.00;;;;;;5055413;28;20461;-79
2023/07/01 06:41:04;;;;;;;3.80;2.33;;;19.30;1.00;;;;;;5051222;28;20441;-79
2023/07/01 06:43:29;;;;;;;4.17;3.07;;;19.40;1.00;;;;;;5055869;28;20657;-79
2023/07/01 06:45:55;;;;;;;4.40;2.50;;;19.60;1.00;;;;;;5053738;28;20265;-79
2023/07/01 06:48:20;;;;;;;9.40;2.80;;;19.80;99.90;;;;;;5055062;28;20694;-79
2023/07/01 06:50:46;;;;;;;4.10;2.77;;;19.90;99.90;;;;;;5054113;28;20249;-80
2023/07/01 06:53:11;;;;;;;4.00;2.43;;;20.10;99.90;;;;;;5053212;28;20211;-79
2023/07/01 06:55:37;;;;;;;3.57;2.70;;;20.20;92.00;;;;;;5055089;28;20184;-78
2023/07/01 06:58:03;;;;;;;5.50;3.07;;;20.40;1.00;;;;;;5053567;28;20238;-79
2023/07/01 07:00:29;;;;;;;4.23;2.67;;;20.50;1.00;;;;;;5050823;28;20289;-79
2023/07/01 07:02:55;;;;;;;3.50;2.40;;;20.40;1.00;;;;;;5055021;28;20273;-78
2023/07/01 07:05:20;;;;;;;2.57;2.00;;;20.30;1.00;;;;;;5053204;28;20477;-78
2023/07/01 07:07:46;;;;;;;3.30;2.17;;;20.30;1.00;;;;;;5055181;28;20181;-79
2023/07/01 07:10:11;;;;;;;9.53;3.20;;;20.20;1.00;;;;;;5055280;28;20208;-80
2023/07/01 07:12:37;;;;;;;6.40;2.53;;;20.20;1.00;;;;;;5055072;28;20290;-79
2023/07/01 07:15:03;;;;;;;5.63;2.50;;;20.30;1.00;;;;;;5052830;28;20196;-78
2023/07/01 07:17:28;;;;;;;3.70;2.20;;;20.40;1.00;;;;;;5054208;28;20239;-79
2023/07/01 07:19:54;;;;;;;3.93;2.03;;;20.50;1.00;;;;;;5054985;28;20202;-78
2023/07/01 07:22:20;;;;;;;3.90;2.10;;;20.50;1.00;;;;;;5052646;28;20212;-79
2023/07/01 07:24:45;;;;;;;3.37;1.70;;;20.50;1.00;;;;;;5038850;28;20437;-79
2023/07/01 07:27:11;;;;;;;3.23;1.70;;;20.50;1.00;;;;;;5056181;28;20716;-78
2023/07/01 07:29:37;;;;;;;4.20;1.93;;;20.50;1.00;;;;;;5056129;28;20190;-78
2023/07/01 07:32:03;;;;;;;2.33;1.70;;;20.40;1.00;;;;;;5055495;28;20209;-78
2023/07/01 07:34:28;;;;;;;3.00;1.90;;;20.40;1.00;;;;;;5050848;28;20450;-78
2023/07/01 07:36:54;;;;;;;2.00;1.63;;;20.40;1.00;;;;;;5055543;28;20201;-78
2023/07/01 07:39:19;;;;;;;2.90;1.43;;;20.40;1.00;;;;;;5055409;28;20197;-79
2023/07/01 07:41:45;;;;;;;2.30;1.73;;;20.50;1.00;;;;;;5056868;28;20190;-80
2023/07/01 07:44:11;;;;;;;1.93;1.40;;;20.70;1.00;;;;;;5056439;28;20186;-79
2023/07/01 07:46:39;;;;;;;2.23;1.30;;;21.00;1.00;;;;;;5055895;28;20229;-79
2023/07/01 07:49:05;;;;;;;1.87;1.23;;;21.40;1.00;;;;;;5051162;28;20273;-78
2023/07/01 07:51:31;;;;;;;1.97;1.10;;;21.70;1.00;;;;;;5056284;28;20841;-79
2023/07/01 07:53:57;;;;;;;1.83;1.30;;;21.80;99.90;;;;;;5056286;28;20670;-79
2023/07/01 07:56:23;;;;;;;2.23;1.27;;;21.80;99.90;;;;;;5056088;28;20422;-79
2023/07/01 07:58:48;;;;;;;2.90;1.37;;;21.70;99.90;;;;;;5056025;28;20199;-79
2023/07/01 08:01:14;;;;;;;2.80;1.30;;;21.60;99.90;;;;;;5056274;28;20187;-79
2023/07/01 08:03:40;;;;;;;2.03;1.30;;;21.50;99.90;;;;;;5058927;28;20190;-80
2023/07/01 08:06:06;;;;;;;1.97;1.17;;;21.50;99.90;;;;;;5057115;28;20193;-79
2023/07/01 08:08:32;;;;;;;1.50;1.37;;;21.40;99.90;;;;;;5059676;28;20580;-78
2023/07/01 08:10:58;;;;;;;1.73;1.27;;;21.30;99.90;;;;;;5057982;28;20448;-78
2023/07/01 08:13:24;;;;;;;2.00;1.40;;;21.20;1.00;;;;;;5056562;28;20201;-77
2023/07/01 08:15:50;;;;;;;2.73;1.20;;;21.10;1.00;;;;;;5039859;28;20429;-80
2023/07/01 08:18:16;;;;;;;2.63;1.20;;;21.20;1.00;;;;;;5057887;28;20549;-79
2023/07/01 08:20:43;;;;;;;6.23;2.07;;;21.40;1.00;;;;;;5056264;28;20868;-79
2023/07/01 08:23:09;;;;;;;1.33;0.80;;;21.30;1.00;;;;;;5052626;28;20447;-78
2023/07/01 08:25:34;;;;;;;1.70;1.10;;;21.30;1.00;;;;;;5057611;28;20418;-79
2023/07/01 08:28:00;;;;;;;1.63;1.00;;;21.30;1.00;;;;;;5055968;28;20213;-80
2023/07/01 08:30:25;;;;;;;1.70;0.97;;;21.30;1.00;;;;;;5057356;28;20188;-78
2023/07/01 08:32:51;;;;;;;2.83;1.27;;;21.30;1.00;;;;;;5057482;28;20261;-79
2023/07/01 08:35:16;;;;;;;1.47;1.00;;;21.20;1.00;;;;;;5055169;28;23374;-78
2023/07/01 08:37:43;;;;;;;2.33;0.90;;;21.20;1.00;;;;;;5057230;28;20665;-79
2023/07/01 08:40:09;;;;;;;1.40;0.90;;;21.30;1.00;;;;;;5056845;28;20185;-78
2023/07/01 08:42:48;;;;;;;1.47;0.97;;;21.50;1.00;;;;;;5057729;28;20440;-78
2023/07/01 08:45:14;;;;;;;1.50;0.87;;;21.90;1.00;;;;;;5058389;28;20196;-78
2023/07/01 08:47:40;;;;;;;2.03;0.90;;;22.20;1.00;;;;;;5058062;28;20453;-78
2023/07/01 08:50:07;;;;;;;1.50;1.00;;;22.30;99.90;;;;;;5057175;28;20454;-79
2023/07/01 08:52:44;;;;;;;1.30;0.80;;;22.30;99.90;;;;;;5051265;28;20899;-78
2023/07/01 08:55:11;;;;;;;1.60;0.80;;;22.10;99.90;;;;;;5057181;28;20860;-79
2023/07/01 08:57:40;;;;;;;1.60;0.90;;;21.90;99.90;;;;;;5056109;28;20433;-78
2023/07/01 09:00:12;;;;;;;2.23;0.87;;;21.70;99.90;;;;;;5057026;28;20418;-78
2023/07/01 09:02:39;;;;;;;1.80;0.80;;;21.60;99.90;;;;;;5055474;28;20574;-79
2023/07/01 09:05:05;;;;;;;3.20;0.80;;;21.40;1.00;;;;;;5054392;28;20426;-79
2023/07/01 09:07:31;;;;;;;2.07;1.07;;;21.30;1.00;;;;;;5055835;28;20944;-78
2023/07/01 09:09:57;;;;;;;1.10;0.80;;;21.10;1.00;;;;;;5049928;28;20491;-78
2023/07/01 09:12:30;;;;;;;1.20;0.80;;;21.00;1.00;;;;;;5051747;28;20560;-79
2023/07/01 09:15:08;;;;;;;2.10;0.77;;;20.90;70.50;;;;;;5054565;28;20421;-78
2023/07/01 09:17:39;;;;;;;3.17;0.97;;;20.90;99.90;;;;;;5050079;28;20407;-79
2023/07/01 09:20:10;;;;;;;1.77;0.93;;;20.90;99.90;;;;;;5056026;28;20810;-78
2023/07/01 09:22:38;;;;;;;2.37;0.80;;;20.90;99.90;;;;;;5056472;28;20422;-79
2023/07/01 09:25:04;;;;;;;1.43;0.80;;;21.00;99.90;;;;;;5054690;28;20439;-79
2023/07/01 09:27:41;;;;;;;1.47;0.87;;;21.20;99.90;;;;;;5038649;28;20406;-78
2023/07/01 09:30:24;;;;;;;1.20;0.80;;;21.50;99.90;;;;;;5053437;28;20930;-78
2023/07/01 09:32:50;;;;;;;1.10;0.60;;;21.60;99.90;;;;;;5037199;28;21031;-78
2023/07/01 09:35:16;;;;;;;1.10;0.70;;;21.70;29.40;;;;;;5053244;28;20930;-79
2023/07/01 09:37:41;;;;;;;1.70;0.73;;;21.70;4.00;;;;;;5049396;28;20431;-78
2023/07/01 09:40:21;;;;;;;1.27;0.80;;;21.70;1.00;;;;;;5055850;28;20188;-78
2023/07/01 09:42:51;;;;;;;1.67;0.67;;;21.70;1.00;;;;;;5055389;28;20236;-79
2023/07/01 09:45:17;;;;;;;1.67;0.80;;;21.70;1.00;;;;;;5055819;28;20533;-78
2023/07/01 09:47:42;;;;;;;3.17;0.80;;;21.70;1.00;;;;;;5039600;28;20478;-79
2023/07/01 09:50:19;;;;;;;1.20;0.63;;;21.80;1.00;;;;;;5051687;28;20248;-79
2023/07/01 09:52:45;;;;;;;1.10;0.80;;;21.80;1.00;;;;;;5054157;28;20206;-79
2023/07/01 09:55:11;;;;;;;2.17;0.90;;;21.80;47.80;;;;;;5054771;28;20928;-79
2023/07/01 09:57:37;;;;;;;1.50;0.80;;;21.80;99.90;;;;;;5051694;28;20185;-80
2023/07/01 10:00:06;;;;;;;1.30;0.70;;;21.80;99.90;;;;;;5056059;28;20218;-79
2023/07/01 10:02:32;;;;;;;1.00;0.60;;;21.80;99.90;;;;;;5056958;28;20484;-79
2023/07/01 10:05:00;;;;;;;1.00;0.60;;;22.00;99.90;;;;;;5056830;28;21009;-79
2023/07/01 10:07:26;;;;;;;2.17;0.60;;;22.30;99.90;;;;;;5053089;28;20490;-79
2023/07/01 10:09:51;;;;;;;1.30;0.80;;;22.50;1.00;;;;;;5058096;28;20432;-79
2023/07/01 10:12:18;;;;;;;2.13;0.70;;;22.70;1.00;;;;;;5056951;28;20564;-80
2023/07/01 10:14:48;;;;;;;1.37;0.77;;;22.90;1.00;;;;;;5057866;28;20176;-79
2023/07/01 10:17:15;;;;;;;1.07;0.67;;;23.20;1.00;;;;;;5058037;28;20424;-79
2023/07/01 10:19:46;;;;;;;1.10;0.70;;;23.20;1.00;;;;;;5055193;28;20440;-78
2023/07/01 10:22:27;;;;;;;1.50;0.80;;;23.10;1.00;;;;;;5052206;28;20867;-76
2023/07/01 10:25:05;;;;;;;1.30;0.70;;;23.00;1.00;;;;;;5052142;28;20436;-78
2023/07/01 10:27:40;;;;;;;1.13;0.67;;;23.00;1.00;;;;;;5053291;28;20441;-78
2023/07/01 10:30:07;;;;;;;2.07;0.60;;;23.00;1.00;;;;;;5052107;28;20421;-79
2023/07/01 10:32:33;;;;;;;1.30;0.80;;;22.90;1.00;;;;;;5053551;28;20445;-78
2023/07/01 10:34:59;;;;;;;1.57;0.60;;;22.90;1.00;;;;;;5049926;28;20445;-79
2023/07/01 10:37:26;;;;;;;1.20;0.70;;;22.90;1.00;;;;;;5052318;28;20666;-79
2023/07/01 10:39:53;;;;;;;1.10;0.60;;;22.90;1.00;;;;;;5051283;28;20521;-79
2023/07/01 10:42:31;;;;;;;1.30;0.80;;;22.90;1.00;;;;;;5052688;28;20470;-78
2023/07/01 10:45:11;;;;;;;1.30;0.70;;;23.00;1.00;;;;;;5047551;28;20509;-78
2023/07/01 10:47:43;;;;;;;1.30;1.00;;;23.20;99.90;;;;;;5051055;28;20468;-79
2023/07/01 10:50:10;;;;;;;1.30;0.90;;;23.30;99.90;;;;;;5052319;28;20445;-79
2023/07/01 10:52:57;;;;;;;2.00;1.00;;;23.30;99.90;;;;;;5050976;28;21144;-79
2023/07/01 10:55:46;;;;;;;1.73;1.53;;;23.30;99.90;;;;;;5050043;28;20433;-79
2023/07/01 10:58:27;;;;;;;1.27;0.70;;;23.30;99.90;;;;;;5052621;28;20453;-79
2023/07/01 11:00:54;;;;;;;1.20;0.70;;;23.60;99.90;;;;;;5048485;28;20807;-79
2023/07/01 11:03:42;;;;;;;1.53;0.90;;;23.60;99.90;;;;;;5048692;28;20527;-78
2023/07/01 11:06:12;;;;;;;1.20;0.73;;;23.70;99.90;;;;;;5036156;28;20507;-79
2023/07/01 11:08:47;;;;;;;1.20;0.87;;;24.00;99.90;;;;;;5034325;28;20462;-79
2023/07/01 11:11:21;;;;;;;1.57;0.73;;;24.30;99.90;;;;;;5053274;28;20969;-79
2023/07/01 11:14:13;;;;;;;1.97;1.00;;;24.50;99.90;;;;;;5051433;28;20561;-79
2023/07/01 11:16:39;;;;;;;2.03;1.03;;;24.40;99.90;;;;;;5044384;28;20431;-78
2023/07/01 11:19:07;;;;;;;2.40;1.00;;;24.30;99.90;;;;;;5049920;28;20498;-78
2023/07/01 11:21:33;;;;;;;1.30;0.90;;;24.00;99.90;;;;;;5051024;28;20495;-78
2023/07/01 11:24:05;;;;;;;1.40;1.10;;;23.70;99.90;;;;;;5052237;28;20462;-78
2023/07/01 11:26:33;;;;;;;2.40;1.17;;;23.50;99.90;;;;;;5052490;28;20867;-79
2023/07/01 11:28:59;;;;;;;1.37;0.90;;;23.50;99.90;;;;;;5044558;28;20449;-79
2023/07/01 11:31:29;;;;;;;2.73;0.90;;;23.50;99.90;;;;;;5053875;28;20426;-79
2023/07/01 11:33:56;;;;;;;1.70;1.20;;;23.50;99.90;;;;;;5054197;28;20460;-78
2023/07/01 11:36:39;;;;;;;1.40;1.00;;;23.30;99.90;;;;;;5050454;28;20444;-79
2023/07/01 11:39:08;;;;;;;1.30;0.90;;;23.30;99.90;;;;;;5050305;28;20448;-79
2023/07/01 11:41:35;;;;;;;1.23;0.87;;;23.40;99.90;;;;;;5051964;28;21000;-78
2023/07/01 11:44:02;;;;;;;1.40;0.90;;;23.40;99.90;;;;;;5050857;28;20812;-79
2023/07/01 11:46:39;;;;;;;4.50;1.10;;;23.30;99.90;;;;;;5051016;28;20441;-78
2023/07/01 11:49:37;;;;;;;1.40;0.80;;;23.40;99.90;;;;;;5046681;28;20942;-81
2023/07/01 11:52:04;;;;;;;2.13;1.20;;;23.70;99.90;;;;;;4979970;28;20468;-80
2023/07/01 11:54:58;;;;;;;1.53;0.97;;;23.70;99.90;;;;;;5069955;28;20575;-78
2023/07/01 11:57:24;;;;;;;1.37;1.00;;;23.80;99.90;;;;;;5069389;28;20948;-79
2023/07/01 11:59:58;;;;;;;1.60;1.10;;;24.00;99.90;;;;;;5057959;28;20254;-78
2023/07/01 12:02:31;;;;;;;2.10;0.80;;;24.20;99.90;;;;;;5047869;28;20672;-78
2023/07/01 12:04:57;;;;;;;2.37;1.33;;;24.40;99.90;;;;;;5043728;28;21029;-79
2023/07/01 12:07:22;;;;;;;3.00;1.37;;;24.30;99.90;;;;;;4995830;28;20485;-79
2023/07/01 12:09:48;;;;;;;1.53;1.07;;;24.10;99.90;;;;;;4992429;28;20660;-78
2023/07/01 12:12:32;;;;;;;2.37;1.77;;;23.80;99.90;;;;;;5000314;28;20190;-78
2023/07/01 12:15:09;;;;;;;2.67;1.20;;;23.60;99.90;;;;;;4994367;28;20207;-79
2023/07/01 12:17:36;;;;;;;1.70;1.10;;;23.70;99.90;;;;;;4994035;28;20432;-78
2023/07/01 12:20:04;;;;;;;1.57;1.47;;;23.90;99.90;;;;;;4991162;28;20472;-79
2023/07/01 12:22:30;;;;;;;1.63;1.30;;;24.10;99.90;;;;;;5002500;28;20428;-78
2023/07/01 12:24:59;;;;;;;1.60;1.10;;;24.30;99.90;;;;;;4993839;28;20451;-78
2023/07/01 12:27:25;;;;;;;1.50;1.23;;;24.20;99.90;;;;;;4996192;28;20194;-78
2023/07/01 12:29:51;;;;;;;1.70;1.40;;;24.10;99.90;;;;;;4998511;28;20475;-79
2023/07/01 12:32:17;;;;;;;1.83;1.40;;;24.10;99.90;;;;;;4993325;28;20186;-78
2023/07/01 12:34:43;;;;;;;1.50;1.20;;;24.20;99.90;;;;;;5015630;28;20489;-78
2023/07/01 12:37:09;;;;;;;1.50;1.20;;;24.20;99.90;;;;;;5002917;28;20868;-78
2023/07/01 12:39:35;;;;;;;2.07;0.97;;;24.30;99.90;;;;;;4998250;28;20511;-77
2023/07/01 12:42:02;;;;;;;2.17;1.00;;;24.50;99.90;;;;;;4989756;28;20681;-78
2023/07/01 12:44:27;;;;;;;1.40;1.07;;;24.80;99.90;;;;;;4998455;28;20453;-78
2023/07/01 12:46:53;;;;;;;2.10;1.07;;;25.00;99.90;;;;;;4995469;28;20808;-78
2023/07/01 12:49:19;;;;;;;2.37;0.87;;;25.20;99.90;;;;;;5001028;28;20704;-78
2023/07/01 12:51:45;;;;;;;1.50;0.90;;;25.50;99.90;;;;;;5002436;28;20190;-78